createdAt,value
2024-02-08T00:03:33.448Z,99395.16
2024-02-08T00:08:36.751Z,99397.81
2024-02-08T00:13:38.774Z,99392.09
2024-02-08T00:19:04.118Z,99399.06
2024-02-08T00:24:06.436Z,99405.63
2024-02-08T00:29:09.734Z,99411.94
2024-02-08T00:34:12.633Z,99399.69
2024-02-08T00:39:18.983Z,99413.94
2024-02-08T00:44:27.495Z,99427.50
2024-02-08T00:49:31.480Z,99426.03
2024-02-08T00:54:33.381Z,99434.97
2024-02-08T00:59:39.833Z,99440.94
2024-02-08T01:04:41.882Z,99442.97
2024-02-08T01:09:56.988Z,99450.34
2024-02-08T01:15:17.021Z,99457.69
2024-02-08T01:20:29.578Z,99465.03
2024-02-08T01:25:32.776Z,99456.31
2024-02-08T01:30:36.784Z,99464.97
2024-02-08T01:35:41.733Z,99467.47
2024-02-08T01:40:50.535Z,99459.59
2024-02-08T01:45:53.598Z,99463.72
2024-02-08T01:50:59.945Z,99455.50
2024-02-08T01:56:04.046Z,99459.00
2024-02-08T02:01:07.659Z,99462.13
2024-02-08T02:06:10.042Z,99456.03
2024-02-08T02:11:42.887Z,99461.34
2024-02-08T02:16:56.308Z,99470.13
2024-02-08T02:21:58.294Z,99464.97
2024-02-08T02:27:01.479Z,99467.78
2024-02-08T02:32:17.391Z,99474.44
2024-02-08T02:37:20.277Z,99473.41
2024-02-08T02:42:26.999Z,99469.28
2024-02-08T02:47:33.098Z,99478.81
2024-02-08T02:52:35.641Z,99466.81
2024-02-08T02:57:37.613Z,99486.34
2024-02-08T03:02:39.665Z,99492.78
2024-02-08T03:07:43.856Z,99491.19
2024-02-08T03:12:45.865Z,99497.63
2024-02-08T03:17:48.609Z,99500.09
2024-02-08T03:23:04.411Z,99507.06
2024-02-08T03:28:14.581Z,99500.31
2024-02-08T03:33:20.282Z,99511.53
2024-02-08T03:38:22.274Z,99516.59
2024-02-08T03:43:25.282Z,99524.78
2024-02-08T03:48:34.589Z,99521.22
2024-02-08T03:53:38.517Z,99530.53
2024-02-08T03:58:40.559Z,99526.25
2024-02-08T04:03:55.133Z,99515.34
2024-02-08T04:09:18.159Z,99537.16
2024-02-08T04:14:58.672Z,99541.59
2024-02-08T04:20:19.258Z,99531.72
2024-02-08T04:25:39.956Z,99541.03
2024-02-08T04:31:00.255Z,99554.53
2024-02-08T04:36:29.692Z,99550.34
2024-02-08T04:42:10.175Z,99539.56
2024-02-08T04:47:37.704Z,99543.97
2024-02-08T04:53:16.627Z,99539.81
2024-02-08T04:58:37.163Z,99532.16
2024-02-08T05:03:43.712Z,99533.72
2024-02-08T05:08:50.616Z,99541.16
2024-02-08T05:13:53.684Z,99544.19
2024-02-08T05:18:57.447Z,99547.34
2024-02-08T05:24:02.966Z,99551.72
2024-02-08T05:29:21.231Z,99561.84
2024-02-08T05:34:27.439Z,99562.16
2024-02-08T05:39:33.884Z,99553.03
2024-02-08T05:44:41.925Z,99540.44
2024-02-08T05:49:53.829Z,99546.63
2024-02-08T05:54:55.909Z,99559.13
2024-02-08T06:00:02.367Z,99560.59
2024-02-08T06:05:11.150Z,99572.72
2024-02-08T06:10:16.564Z,99572.50
2024-02-08T06:15:37.625Z,99585.53
2024-02-08T06:21:01.387Z,99596.22
2024-02-08T06:26:15.814Z,99591.38
2024-02-08T06:31:21.033Z,99593.88
2024-02-08T06:36:31.826Z,99606.22
2024-02-08T06:41:54.572Z,99610.63
2024-02-08T06:47:19.566Z,99610.63
2024-02-08T06:52:53.919Z,99619.88
2024-02-08T06:58:27.653Z,99608.63
2024-02-08T07:03:48.642Z,99604.59
2024-02-08T07:09:11.351Z,99609.69
2024-02-08T07:14:31.914Z,99601.69
2024-02-08T07:19:52.900Z,99604.41
2024-02-08T07:25:13.647Z,99615.97
2024-02-08T07:30:49.201Z,99617.34
2024-02-08T07:36:09.772Z,99617.66
2024-02-08T07:41:13.837Z,99620.94
2024-02-08T07:46:21.061Z,99634.22
2024-02-08T07:51:27.430Z,99631.72
2024-02-08T07:56:38.894Z,99642.09
2024-02-08T08:01:45.858Z,99648.94
2024-02-08T08:07:02.120Z,99645.69
2024-02-08T08:12:11.371Z,99633.28
2024-02-08T08:17:28.654Z,99632.81
2024-02-08T08:22:33.493Z,99632.47
2024-02-08T08:28:00.777Z,99630.28
2024-02-08T08:33:03.177Z,99634.22
2024-02-08T08:38:23.596Z,99637.56
2024-02-08T08:43:38.078Z,99639.56
2024-02-08T08:49:16.219Z,99628.63
2024-02-08T08:54:30.922Z,99634.63
2024-02-08T08:59:34.286Z,99639.25
2024-02-08T09:04:38.625Z,99647.09
2024-02-08T09:10:05.789Z,99649.38
2024-02-08T09:15:28.601Z,99638.66
2024-02-08T09:20:31.596Z,99637.25
2024-02-08T09:25:48.955Z,99641.66
2024-02-08T09:30:55.317Z,99642.34
2024-02-08T09:36:05.151Z,99638.69
2024-02-08T09:41:11.150Z,99633.38
2024-02-08T09:46:33.281Z,99633.53
2024-02-08T09:51:55.274Z,99634.03
2024-02-08T09:57:23.502Z,99625.22
2024-02-08T10:03:05.289Z,99632.13
2024-02-08T10:08:11.519Z,99624.59
2024-02-08T10:13:42.450Z,99608.75
2024-02-08T10:19:05.796Z,99604.69
2024-02-08T10:24:29.032Z,99602.44
2024-02-08T10:29:39.515Z,99609.63
2024-02-08T10:34:45.102Z,99607.56
2024-02-08T10:40:01.723Z,99588.53
2024-02-08T10:45:07.151Z,99586.50
2024-02-08T10:50:29.064Z,99573.03
2024-02-08T10:55:38.882Z,99566.94
2024-02-08T11:00:42.996Z,99567.09
2024-02-08T11:06:11.532Z,99569.06
2024-02-08T11:11:22.528Z,99547.72
2024-02-08T11:16:39.290Z,99555.94
2024-02-08T11:21:46.030Z,99544.47
2024-02-08T11:26:56.415Z,99547.91
2024-02-08T11:32:01.459Z,99545.38
2024-02-08T11:37:20.450Z,99551.88
2024-02-08T11:42:25.309Z,99554.09
2024-02-08T11:47:27.339Z,99541.91
2024-02-08T11:52:30.170Z,99532.50
2024-02-08T11:57:42.388Z,99537.34
2024-02-08T12:02:59.191Z,99518.59
2024-02-08T12:08:10.930Z,99508.56
2024-02-08T12:13:15.745Z,99510.47
2024-02-08T12:18:19.963Z,99498.81
2024-02-08T12:23:25.529Z,99497.06
2024-02-08T12:28:28.909Z,99504.13
2024-02-08T12:33:34.262Z,99502.47
2024-02-08T12:38:39.125Z,99502.28
2024-02-08T12:43:44.269Z,99486.41
2024-02-08T12:48:48.789Z,99470.50
2024-02-08T12:53:58.540Z,99473.53
2024-02-08T12:59:02.709Z,99472.03
2024-02-08T13:04:28.467Z,99480.75
2024-02-08T13:09:36.730Z,99462.00
2024-02-08T13:14:38.872Z,99456.56
2024-02-08T13:19:41.700Z,99457.78
2024-02-08T13:24:46.554Z,99438.03
2024-02-08T13:29:48.803Z,99439.03
2024-02-08T13:34:52.767Z,99448.66
2024-02-08T13:40:04.968Z,99440.00
2024-02-08T13:45:07.716Z,99443.53
2024-02-08T13:50:13.336Z,99450.06
2024-02-08T13:55:20.239Z,99445.75
2024-02-08T14:00:23.720Z,99452.72
2024-02-08T14:05:27.659Z,99440.06
2024-02-08T14:10:33.308Z,99441.53
2024-02-08T14:15:39.849Z,99438.69
2024-02-08T14:20:48.925Z,99430.59
2024-02-08T14:26:10.902Z,99439.38
2024-02-08T14:31:13.720Z,99441.19
2024-02-08T14:36:16.369Z,99442.22
2024-02-08T14:41:28.334Z,99441.13
2024-02-08T14:46:30.993Z,99441.31
2024-02-08T14:51:37.809Z,99426.47
2024-02-08T14:56:42.691Z,99429.41
2024-02-08T15:01:54.326Z,99429.41
2024-02-08T15:07:06.261Z,99416.84
2024-02-08T15:12:46.066Z,99412.06
2024-02-08T15:17:50.315Z,99405.47
2024-02-08T15:23:11.295Z,99406.03
2024-02-08T15:28:27.975Z,99414.31
2024-02-08T15:33:32.911Z,99412.19
2024-02-08T15:38:35.083Z,99400.00
2024-02-08T15:43:38.040Z,99392.22
2024-02-08T15:48:46.557Z,99395.28
2024-02-08T15:53:51.341Z,99402.47
2024-02-08T15:59:03.352Z,99386.34
2024-02-08T16:04:20.035Z,99383.88
2024-02-08T16:09:28.770Z,99384.88
2024-02-08T16:14:43.887Z,99367.50
2024-02-08T16:19:53.256Z,99371.69
2024-02-08T16:24:58.458Z,99379.41
2024-02-08T16:30:09.228Z,99394.44
2024-02-08T16:35:30.029Z,99393.41
2024-02-08T16:40:33.872Z,99395.94
2024-02-08T16:45:45.831Z,99384.31
2024-02-08T16:50:50.793Z,99388.44
2024-02-08T16:56:00.125Z,99397.28
2024-02-08T17:01:06.839Z,99395.84
2024-02-08T17:06:18.156Z,99398.53
2024-02-08T17:11:25.554Z,99395.44
2024-02-08T17:16:37.652Z,99394.75
2024-02-08T17:21:46.470Z,99387.28
2024-02-08T17:27:01.099Z,99381.78
2024-02-08T17:32:09.289Z,99376.59
2024-02-08T17:37:19.638Z,99372.69
2024-02-08T17:42:22.230Z,99363.09
2024-02-08T17:47:30.176Z,99358.47
2024-02-08T17:52:36.281Z,99361.06
2024-02-08T17:57:43.716Z,99359.72
2024-02-08T18:02:46.749Z,99355.06
2024-02-08T18:07:48.952Z,99345.25
2024-02-08T18:12:57.459Z,99347.06
2024-02-08T18:18:06.357Z,99345.50
2024-02-08T18:23:08.623Z,99343.75
2024-02-08T18:28:11.326Z,99346.34
2024-02-08T18:33:16.946Z,99348.94
2024-02-08T18:38:24.761Z,99339.59
2024-02-08T18:43:28.681Z,99330.97
2024-02-08T18:48:35.813Z,99327.59
2024-02-08T18:53:42.709Z,99323.66
2024-02-08T18:58:52.150Z,99332.22
2024-02-08T19:03:55.145Z,99315.88
2024-02-08T19:08:58.553Z,99311.72
2024-02-08T19:14:03.362Z,99306.69
2024-02-08T19:19:12.440Z,99291.41
2024-02-08T19:24:19.039Z,99280.53
2024-02-08T19:29:25.929Z,99281.88
2024-02-08T19:34:30.853Z,99282.06
2024-02-08T19:39:33.045Z,99262.34
2024-02-08T19:44:38.055Z,99263.13
2024-02-08T19:49:43.219Z,99254.78
2024-02-08T19:54:51.331Z,99241.53
2024-02-08T19:59:55.310Z,99243.88
2024-02-08T20:05:02.722Z,99235.88
2024-02-08T20:10:13.858Z,99239.00
2024-02-08T20:15:22.217Z,99240.03
2024-02-08T20:20:24.685Z,99245.84
2024-02-08T20:25:35.103Z,99247.94
2024-02-08T20:30:40.208Z,99243.53
2024-02-08T20:35:57.246Z,99252.59
2024-02-08T20:41:12.181Z,99247.41
2024-02-08T20:46:17.782Z,99252.34
2024-02-08T20:51:30.056Z,99247.94
2024-02-08T20:56:39.569Z,99243.25
2024-02-08T21:01:47.634Z,99238.09
2024-02-08T21:06:49.772Z,99231.06
2024-02-08T21:11:52.567Z,99229.56
2024-02-08T21:16:55.524Z,99209.56
2024-02-08T21:21:58.904Z,99220.94
2024-02-08T21:27:09.014Z,99217.53
2024-02-08T21:32:12.120Z,99223.28
2024-02-08T21:37:14.455Z,99223.47
2024-02-08T21:42:16.839Z,99220.38
2024-02-08T21:47:23.612Z,99206.28
2024-02-08T21:52:27.776Z,99213.34
2024-02-08T21:57:42.287Z,99217.53
2024-02-08T22:02:47.558Z,99217.03
2024-02-08T22:07:50.168Z,99225.03
2024-02-08T22:13:07.503Z,99236.31
2024-02-08T22:18:17.613Z,99231.28
2024-02-08T22:23:22.848Z,99243.00
2024-02-08T22:28:30.812Z,99238.59
2024-02-08T22:33:33.903Z,99239.06
2024-02-08T22:38:38.562Z,99239.38
2024-02-08T22:43:49.631Z,99242.22
2024-02-08T22:48:55.943Z,99237.75
2024-02-08T22:53:58.083Z,99239.81
2024-02-08T22:59:01.736Z,99243.19
2024-02-08T23:04:07.186Z,99250.41
2024-02-08T23:09:11.722Z,99231.16
2024-02-08T23:14:31.398Z,99236.34
2024-02-08T23:19:35.792Z,99245.16
2024-02-08T23:24:42.310Z,99244.38
2024-02-08T23:29:44.456Z,99242.00
2024-02-08T23:34:49.057Z,99245.41
2024-02-08T23:39:51.255Z,99230.25
2024-02-08T23:45:17.128Z,99238.63
2024-02-08T23:50:19.915Z,99222.66
2024-02-08T23:55:24.780Z,99231.81
